Seneimaru — JG5357 — position and weather

sailwx.info

Track history (hours):
 
Tides and Currents Weather Stations Pressure Air Temp Water Temp Dewpoint Dewpoint Depression Visibility Wind Speed Wind Dir Waves Ship Positions

Seneimaru

Last reported at 2014-Nov-27 04:19 UTC. Time now 2014-Nov-27 08:13 UTC.
Position N 35°10' E 139°46'.

Length 72 m; draft 5.9 m.

Type: Cargo ship. MMSI: 431100477.

Date/timePositionNaut miles runAvg speedWind from/ knotsBaromVisibWave heightAir tempDewpointWater temp
2014-Nov-27 04:19N 35°10' E 139°46'911.5
2014-Nov-27 03:33N 35°19' E 139°43'1110.7
2014-Nov-27 02:33N 35°29' E 139°47'4 3.9
2014-Nov-27 01:33N 35°30' E 139°43'0 0.0
2014-Nov-27 00:34N 35°30' E 139°43'0 0.0
2014-Nov-26 23:34N 35°30' E 139°43'0 0.0
2014-Nov-26 22:34N 35°30' E 139°43'0 0.0
2014-Nov-26 21:34N 35°30' E 139°43'0 0.0
2014-Nov-26 20:33N 35°30' E 139°43'0 0.0
2014-Nov-26 19:33N 35°30' E 139°43'0 0.0
2014-Nov-26 18:33N 35°30' E 139°43'0 0.0
2014-Nov-26 17:34N 35°30' E 139°43'0 0.0
2014-Nov-26 16:33N 35°30' E 139°43'0 0.0
2014-Nov-26 15:33N 35°30' E 139°43'0 0.0
2014-Nov-26 14:34N 35°30' E 139°43'0 0.0
2014-Nov-26 13:34N 35°30' E 139°43'0 0.0
2014-Nov-26 12:33N 35°30' E 139°43'0 0.0
2014-Nov-26 11:34N 35°30' E 139°43'0 0.0
2014-Nov-26 10:33N 35°30' E 139°43'0 0.0
2014-Nov-26 09:34N 35°30' E 139°43'0 0.0
2014-Nov-26 08:34N 35°30' E 139°43'0 0.0
2014-Nov-26 07:33N 35°30' E 139°43'0 0.0
2014-Nov-26 06:34N 35°30' E 139°43'0 0.0
2014-Nov-26 05:33N 35°30' E 139°43'0 0.0
2014-Nov-26 04:33N 35°30' E 139°43'0 0.0
2014-Nov-26 03:34N 35°30' E 139°43'0 0.0
2014-Nov-26 02:33N 35°30' E 139°43'1 1.0
2014-Nov-26 01:33N 35°29' E 139°43'6 5.6
2014-Nov-26 00:33N 35°24' E 139°45'0 0.0
2014-Nov-25 23:33N 35°24' E 139°45'0 0.0
2014-Nov-25 22:33N 35°24' E 139°45'0 0.0
2014-Nov-25 21:33N 35°24' E 139°45'0 0.4
2014-Nov-25 20:33N 35°24' E 139°45'10 9.8
2014-Nov-25 19:33N 35°14' E 139°47'0 0.0
2014-Nov-24 08:33N 35°14' E 139°46'1110.7
2014-Nov-24 07:33N 35°24' E 139°43'5 5.5
2014-Nov-24 06:34N 35°30' E 139°43'1 0.7
2014-Nov-24 05:33N 35°30' E 139°43'0 0.0
2014-Nov-24 04:33N 35°30' E 139°43'0 0.0
2014-Nov-24 03:33N 35°30' E 139°43'0 0.0
2014-Nov-24 02:33N 35°30' E 139°43'0 0.0
2014-Nov-24 01:33N 35°30' E 139°43'0 0.0
2014-Nov-24 00:33N 35°30' E 139°43'0 0.0
2014-Nov-23 23:33N 35°30' E 139°43'0 0.0
2014-Nov-23 22:33N 35°30' E 139°43'0 0.0
2014-Nov-23 21:33N 35°30' E 139°43'0 0.0
2014-Nov-23 20:33N 35°30' E 139°43'0 0.0
2014-Nov-23 19:33N 35°30' E 139°43'0 0.0
2014-Nov-23 18:33N 35°30' E 139°43'0 0.0
2014-Nov-23 17:33N 35°30' E 139°43'0 0.0
2014-Nov-23 16:33N 35°30' E 139°43'0 0.0
2014-Nov-23 15:33N 35°30' E 139°43'0 0.0
2014-Nov-23 14:33N 35°30' E 139°43'0 0.0
2014-Nov-23 13:33N 35°30' E 139°43'0 0.0
2014-Nov-23 12:33N 35°30' E 139°43'0 0.0
2014-Nov-23 11:33N 35°30' E 139°43'0 0.0
2014-Nov-23 10:33N 35°30' E 139°43'0 0.0
2014-Nov-23 09:33N 35°30' E 139°43'0 0.0
2014-Nov-23 08:33N 35°30' E 139°43'0 0.0
2014-Nov-23 07:33N 35°30' E 139°43'0 0.0
2014-Nov-23 06:33N 35°30' E 139°43'0 0.0
2014-Nov-23 05:33N 35°30' E 139°43'0 0.0
2014-Nov-23 04:33N 35°30' E 139°43'0 0.0
2014-Nov-23 03:33N 35°30' E 139°43'0 0.0
2014-Nov-23 02:33N 35°30' E 139°43'0 0.0
2014-Nov-23 01:31N 35°30' E 139°43'0 0.0
2014-Nov-23 00:33N 35°30' E 139°43'0 0.0
2014-Nov-22 23:33N 35°30' E 139°43'0 0.0
2014-Nov-22 22:33N 35°30' E 139°43'0 0.0
2014-Nov-22 21:33N 35°30' E 139°43'4 4.4
2014-Nov-22 20:33N 35°26' E 139°44'2 1.9
2014-Nov-22 19:29N 35°24' E 139°44'0 0.0
2014-Nov-22 18:32N 35°24' E 139°44'0 0.0
2014-Nov-22 17:23N 35°24' E 139°44'0 0.0
2014-Nov-22 16:32N 35°24' E 139°44'7 7.3
2014-Nov-22 15:33N 35°17' E 139°46'2 0.1
2014-Nov-21 04:33N 35°15' E 139°46'1010.1
2014-Nov-21 03:33N 35°25' E 139°44'5 5.0
2014-Nov-21 02:33N 35°30' E 139°43'0 0.4
2014-Nov-21 01:33N 35°30' E 139°43'0 0.0
2014-Nov-21 00:33N 35°30' E 139°43'0 0.0
2014-Nov-20 23:33N 35°30' E 139°43'0 0.0
2014-Nov-20 22:33N 35°30' E 139°43'0 0.0
2014-Nov-20 21:33N 35°30' E 139°43'1 1.0
2014-Nov-20 20:33N 35°29' E 139°43'6 6.2
2014-Nov-20 19:33N 35°23' E 139°45'0 0.0
2014-Nov-20 18:33N 35°23' E 139°45'0 0.0
2014-Nov-20 17:33N 35°23' E 139°44'0 0.0
2014-Nov-20 16:33N 35°23' E 139°44'0 0.0
2014-Nov-20 15:33N 35°23' E 139°44'5 5.4
2014-Nov-20 14:34N 35°18' E 139°45'7 0.2
2014-Nov-19 03:24N 35°11' E 139°46'910.8
2014-Nov-19 02:33N 35°20' E 139°43'1110.0
2014-Nov-19 01:28N 35°30' E 139°46'3 3.2
2014-Nov-19 00:33N 35°30' E 139°43'0 0.0
2014-Nov-18 23:34N 35°30' E 139°43'0 0.0
2014-Nov-18 22:34N 35°30' E 139°43'0 0.0
2014-Nov-18 21:34N 35°30' E 139°43'3 2.8
2014-Nov-18 20:34N 35°27' E 139°43'4 3.8
2014-Nov-18 19:32N 35°24' E 139°45'0 0.0
2014-Nov-18 18:32N 35°24' E 139°44'0 0.0
2014-Nov-18 17:32N 35°24' E 139°45'1 1.3
2014-Nov-18 16:33N 35°23' E 139°44'1210.4
2014-Nov-18 15:22N 35°10' E 139°46'  
Track history (hours):
 
Tides and Currents Weather Stations Pressure Air Temp Water Temp Dewpoint Dewpoint Depression Visibility Wind Speed Wind Dir Waves Ship Positions

Seneimaru

Last reported at 2014-Nov-27 04:19 UTC. Time now 2014-Nov-27 08:13 UTC.
Position N 35°10' E 139°46'.

Length 72 m; draft 5.9 m.

Type: Cargo ship. MMSI: 431100477.

Date/timePositionNaut miles runAvg speedWind from/ knotsBaromVisibWave heightAir tempDewpointWater temp
2014-Nov-27 04:19N 35°10' E 139°46'911.5
2014-Nov-27 03:33N 35°19' E 139°43'1110.7
2014-Nov-27 02:33N 35°29' E 139°47'4 3.9
2014-Nov-27 01:33N 35°30' E 139°43'0 0.0
2014-Nov-27 00:34N 35°30' E 139°43'0 0.0
2014-Nov-26 23:34N 35°30' E 139°43'0 0.0
2014-Nov-26 22:34N 35°30' E 139°43'0 0.0
2014-Nov-26 21:34N 35°30' E 139°43'0 0.0
2014-Nov-26 20:33N 35°30' E 139°43'0 0.0
2014-Nov-26 19:33N 35°30' E 139°43'0 0.0
2014-Nov-26 18:33N 35°30' E 139°43'0 0.0
2014-Nov-26 17:34N 35°30' E 139°43'0 0.0
2014-Nov-26 16:33N 35°30' E 139°43'0 0.0
2014-Nov-26 15:33N 35°30' E 139°43'0 0.0
2014-Nov-26 14:34N 35°30' E 139°43'0 0.0
2014-Nov-26 13:34N 35°30' E 139°43'0 0.0
2014-Nov-26 12:33N 35°30' E 139°43'0 0.0
2014-Nov-26 11:34N 35°30' E 139°43'0 0.0
2014-Nov-26 10:33N 35°30' E 139°43'0 0.0
2014-Nov-26 09:34N 35°30' E 139°43'0 0.0
2014-Nov-26 08:34N 35°30' E 139°43'0 0.0
2014-Nov-26 07:33N 35°30' E 139°43'0 0.0
2014-Nov-26 06:34N 35°30' E 139°43'0 0.0
2014-Nov-26 05:33N 35°30' E 139°43'0 0.0
2014-Nov-26 04:33N 35°30' E 139°43'0 0.0
2014-Nov-26 03:34N 35°30' E 139°43'0 0.0
2014-Nov-26 02:33N 35°30' E 139°43'1 1.0
2014-Nov-26 01:33N 35°29' E 139°43'6 5.6
2014-Nov-26 00:33N 35°24' E 139°45'0 0.0
2014-Nov-25 23:33N 35°24' E 139°45'0 0.0
2014-Nov-25 22:33N 35°24' E 139°45'0 0.0
2014-Nov-25 21:33N 35°24' E 139°45'0 0.4
2014-Nov-25 20:33N 35°24' E 139°45'10 9.8
2014-Nov-25 19:33N 35°14' E 139°47'0 0.0
2014-Nov-24 08:33N 35°14' E 139°46'1110.7
2014-Nov-24 07:33N 35°24' E 139°43'5 5.5
2014-Nov-24 06:34N 35°30' E 139°43'1 0.7
2014-Nov-24 05:33N 35°30' E 139°43'0 0.0
2014-Nov-24 04:33N 35°30' E 139°43'0 0.0
2014-Nov-24 03:33N 35°30' E 139°43'0 0.0
2014-Nov-24 02:33N 35°30' E 139°43'0 0.0
2014-Nov-24 01:33N 35°30' E 139°43'0 0.0
2014-Nov-24 00:33N 35°30' E 139°43'0 0.0
2014-Nov-23 23:33N 35°30' E 139°43'0 0.0
2014-Nov-23 22:33N 35°30' E 139°43'0 0.0
2014-Nov-23 21:33N 35°30' E 139°43'0 0.0
2014-Nov-23 20:33N 35°30' E 139°43'0 0.0
2014-Nov-23 19:33N 35°30' E 139°43'0 0.0
2014-Nov-23 18:33N 35°30' E 139°43'0 0.0
2014-Nov-23 17:33N 35°30' E 139°43'0 0.0
2014-Nov-23 16:33N 35°30' E 139°43'0 0.0
2014-Nov-23 15:33N 35°30' E 139°43'0 0.0
2014-Nov-23 14:33N 35°30' E 139°43'0 0.0
2014-Nov-23 13:33N 35°30' E 139°43'0 0.0
2014-Nov-23 12:33N 35°30' E 139°43'0 0.0
2014-Nov-23 11:33N 35°30' E 139°43'0 0.0
2014-Nov-23 10:33N 35°30' E 139°43'0 0.0
2014-Nov-23 09:33N 35°30' E 139°43'0 0.0
2014-Nov-23 08:33N 35°30' E 139°43'0 0.0
2014-Nov-23 07:33N 35°30' E 139°43'0 0.0
2014-Nov-23 06:33N 35°30' E 139°43'0 0.0
2014-Nov-23 05:33N 35°30' E 139°43'0 0.0
2014-Nov-23 04:33N 35°30' E 139°43'0 0.0
2014-Nov-23 03:33N 35°30' E 139°43'0 0.0
2014-Nov-23 02:33N 35°30' E 139°43'0 0.0
2014-Nov-23 01:31N 35°30' E 139°43'0 0.0
2014-Nov-23 00:33N 35°30' E 139°43'0 0.0
2014-Nov-22 23:33N 35°30' E 139°43'0 0.0
2014-Nov-22 22:33N 35°30' E 139°43'0 0.0
2014-Nov-22 21:33N 35°30' E 139°43'4 4.4
2014-Nov-22 20:33N 35°26' E 139°44'2 1.9
2014-Nov-22 19:29N 35°24' E 139°44'0 0.0
2014-Nov-22 18:32N 35°24' E 139°44'0 0.0
2014-Nov-22 17:23N 35°24' E 139°44'0 0.0
2014-Nov-22 16:32N 35°24' E 139°44'7 7.3
2014-Nov-22 15:33N 35°17' E 139°46'2 0.1
2014-Nov-21 04:33N 35°15' E 139°46'1010.1
2014-Nov-21 03:33N 35°25' E 139°44'5 5.0
2014-Nov-21 02:33N 35°30' E 139°43'0 0.4
2014-Nov-21 01:33N 35°30' E 139°43'0 0.0
2014-Nov-21 00:33N 35°30' E 139°43'0 0.0
2014-Nov-20 23:33N 35°30' E 139°43'0 0.0
2014-Nov-20 22:33N 35°30' E 139°43'0 0.0
2014-Nov-20 21:33N 35°30' E 139°43'1 1.0
2014-Nov-20 20:33N 35°29' E 139°43'6 6.2
2014-Nov-20 19:33N 35°23' E 139°45'0 0.0
2014-Nov-20 18:33N 35°23' E 139°45'0 0.0
2014-Nov-20 17:33N 35°23' E 139°44'0 0.0
2014-Nov-20 16:33N 35°23' E 139°44'0 0.0
2014-Nov-20 15:33N 35°23' E 139°44'5 5.4
2014-Nov-20 14:34N 35°18' E 139°45'7 0.2
2014-Nov-19 03:24N 35°11' E 139°46'910.8
2014-Nov-19 02:33N 35°20' E 139°43'1110.0
2014-Nov-19 01:28N 35°30' E 139°46'3 3.2
2014-Nov-19 00:33N 35°30' E 139°43'0 0.0
2014-Nov-18 23:34N 35°30' E 139°43'0 0.0
2014-Nov-18 22:34N 35°30' E 139°43'0 0.0
2014-Nov-18 21:34N 35°30' E 139°43'3 2.8
2014-Nov-18 20:34N 35°27' E 139°43'4 3.8
2014-Nov-18 19:32N 35°24' E 139°45'0 0.0
2014-Nov-18 18:32N 35°24' E 139°44'0 0.0
2014-Nov-18 17:32N 35°24' E 139°45'1 1.3
2014-Nov-18 16:33N 35°23' E 139°44'1210.4
2014-Nov-18 15:22N 35°10' E 139°46'  

Dump ship's entire track history